Time;durP1;ratioP1;P1;durP2;ratioP2;P2;SDS_P1;SDS_P2;PMS_P1;PMS_P2;Temp;Humidity;BMP_temperature;BMP_pressure;BME280_temperature;BME280_humidity;BME280_pressure;Samples;Min_cycle;Max_cycle;Signal;HPM_P1;HPM_P2
2021/08/22 00:00:48;;;;;;;;;;;24.10;49.50;;;;;;1571476;74;1098;-66
2021/08/22 00:02:50;;;;;;;;;;;24.10;49.50;;;;;;1577482;74;738;-67
2021/08/22 00:04:52;;;;;;;;;;;24.20;49.40;;;;;;1577569;75;750;-67
2021/08/22 00:06:53;;;;;;;;;;;24.10;49.40;;;;;;1569983;74;774;-67
2021/08/22 00:08:55;;;;;;;;;;;24.10;49.40;;;;;;1569427;74;709;-66
2021/08/22 00:10:57;;;;;;;;;;;24.10;49.40;;;;;;1567848;74;1079;-66
2021/08/22 00:12:59;;;;;;;;;;;24.20;49.40;;;;;;1576028;74;774;-67
2021/08/22 00:15:01;;;;;;;;;;;24.10;49.40;;;;;;1574163;74;1942;-64
2021/08/22 00:17:03;;;;;;;;;;;24.10;49.40;;;;;;1565777;74;766;-66
2021/08/22 00:19:05;;;;;;;;;;;24.10;49.50;;;;;;1564040;75;709;-66
2021/08/22 00:21:07;;;;;;;;;;;24.20;49.40;;;;;;1576177;74;1116;-67
2021/08/22 00:23:08;;;;;;;;;;;24.10;49.40;;;;;;1559838;74;809;-68
2021/08/22 00:25:10;;;;;;;;;;;24.10;49.40;;;;;;1571519;75;780;-66
2021/08/22 00:27:12;;;;;;;;;;;24.10;49.40;;;;;;1570267;75;775;-66
2021/08/22 00:29:14;;;;;;;;;;;24.10;49.40;;;;;;1574098;74;1125;-66
2021/08/22 00:31:16;;;;;;;;;;;24.10;49.40;;;;;;1568901;74;712;-67
2021/08/22 00:33:18;;;;;;;;;;;24.10;49.40;;;;;;1577492;74;749;-63
2021/08/22 00:35:20;;;;;;;;;;;24.10;49.40;;;;;;1572819;74;1940;-67
2021/08/22 00:37:22;;;;;;;;;;;24.10;49.50;;;;;;1579677;74;691;-67
2021/08/22 00:39:24;;;;;;;;;;;24.10;49.50;;;;;;1572043;74;1146;-68
2021/08/22 00:41:26;;;;;;;;;;;24.10;49.40;;;;;;1579394;75;713;-68
2021/08/22 00:43:28;;;;;;;;;;;24.10;49.40;;;;;;1570225;74;762;-65
2021/08/22 00:45:30;;;;;;;;;;;24.10;49.50;;;;;;1579777;75;777;-66
2021/08/22 00:47:31;;;;;;;;;;;24.10;49.40;;;;;;1578188;74;734;-66
2021/08/22 00:49:33;;;;;;;;;;;24.10;49.40;;;;;;1576284;74;1081;-66
2021/08/22 00:51:35;;;;;;;;;;;24.00;49.30;;;;;;1566415;74;723;-65
2021/08/22 00:53:38;;;;;;;;;;;24.00;49.30;;;;;;1575350;75;932;-66
2021/08/22 00:55:40;;;;;;;;;;;24.10;49.40;;;;;;1567778;75;1895;-66
2021/08/22 00:57:42;;;;;;;;;;;24.10;49.40;;;;;;1575734;75;701;-67
2021/08/22 00:59:44;;;;;;;;;;;24.10;49.40;;;;;;1576526;72;1146;-66
2021/08/22 01:01:46;;;;;;;;;;;24.10;49.40;;;;;;1568079;74;780;-64
2021/08/22 01:03:55;;;;;;;;;;;24.10;49.40;;;;;;1555038;75;1396;-66
2021/08/22 01:05:59;;;;;;;;;;;24.10;49.40;;;;;;1575798;75;696;-68
2021/08/22 01:08:19;;;;;;;;;;;24.10;49.40;;;;;;1570712;75;698;-66
2021/08/22 01:10:22;;;;;;;;;;;24.10;49.40;;;;;;1576407;75;1137;-67
2021/08/22 01:12:26;;;;;;;;;;;24.10;49.40;;;;;;1576266;74;720;-66
2021/08/22 01:14:29;;;;;;;;;;;24.10;49.40;;;;;;1573984;74;1929;-68
2021/08/22 01:16:33;;;;;;;;;;;24.00;49.30;;;;;;1560614;74;728;-67
2021/08/22 01:18:35;;;;;;;;;;;24.10;49.40;;;;;;1570860;74;1982;-67
2021/08/22 01:20:38;;;;;;;;;;;24.00;49.20;;;;;;1579282;75;1136;-67
2021/08/22 01:22:39;;;;;;;;;;;24.10;49.40;;;;;;1571863;74;786;-67
2021/08/22 01:24:41;;;;;;;;;;;24.10;49.30;;;;;;1573961;75;768;-67
2021/08/22 01:26:43;;;;;;;;;;;24.00;49.20;;;;;;1566300;75;711;-67
2021/08/22 01:28:45;;;;;;;;;;;24.00;49.20;;;;;;1571145;74;770;-67
2021/08/22 01:30:48;;;;;;;;;;;24.00;49.20;;;;;;1563352;75;1228;-67
2021/08/22 01:32:50;;;;;;;;;;;24.10;49.40;;;;;;1556503;74;721;-67
2021/08/22 01:34:52;;;;;;;;;;;24.00;49.20;;;;;;1564179;75;1932;-67
2021/08/22 01:36:54;;;;;;;;;;;24.00;49.20;;;;;;1579660;75;873;-67
2021/08/22 01:38:56;;;;;;;;;;;24.10;49.40;;;;;;1559440;75;1224;-68
2021/08/22 01:40:58;;;;;;;;;;;24.10;49.40;;;;;;1572646;74;1070;-67
2021/08/22 01:43:00;;;;;;;;;;;24.10;49.40;;;;;;1574037;75;706;-67
2021/08/22 01:45:05;;;;;;;;;;;24.10;49.40;;;;;;1572424;74;770;-68
2021/08/22 01:47:07;;;;;;;;;;;24.10;49.30;;;;;;1576176;74;933;-67
2021/08/22 01:49:10;;;;;;;;;;;24.10;49.30;;;;;;1579650;74;1157;-67
2021/08/22 01:51:12;;;;;;;;;;;24.00;49.20;;;;;;1609253;73;3115;-63
2021/08/22 01:53:13;;;;;;;;;;;24.00;49.20;;;;;;1603755;73;800;-63
2021/08/22 01:55:15;;;;;;;;;;;24.00;49.20;;;;;;1583253;74;1926;-62
2021/08/22 01:57:18;;;;;;;;;;;24.00;49.20;;;;;;1621828;72;953;-63
2021/08/22 01:59:19;;;;;;;;;;;24.10;49.40;;;;;;1619027;72;790;-63
2021/08/22 02:01:21;;;;;;;;;;;24.00;49.20;;;;;;1624226;72;1158;-63
2021/08/22 02:03:36;;;;;;;;;;;24.10;49.40;;;;;;1614672;72;790;-60
2021/08/22 02:05:38;;;;;;;;;;;24.00;49.30;;;;;;1603992;73;804;-63
2021/08/22 02:07:40;;;;;;;;;;;24.00;49.30;;;;;;1606343;73;716;-63
2021/08/22 02:09:44;;;;;;;;;;;24.00;49.30;;;;;;1603711;74;1130;-63
2021/08/22 02:11:50;;;;;;;;;;;24.00;49.20;;;;;;1595400;73;1914;-62
2021/08/22 02:13:52;;;;;;;;;;;24.10;49.40;;;;;;1605814;73;1894;-63
2021/08/22 02:15:55;;;;;;;;;;;24.00;49.30;;;;;;1610043;73;1905;-63
2021/08/22 02:18:01;;;;;;;;;;;24.00;49.30;;;;;;1600730;73;715;-63
2021/08/22 02:20:04;;;;;;;;;;;24.00;49.20;;;;;;1609755;73;1115;-63
2021/08/22 02:22:05;;;;;;;;;;;24.00;49.20;;;;;;1602519;73;618;-63
2021/08/22 02:24:07;;;;;;;;;;;24.00;49.30;;;;;;1600773;73;814;-63
2021/08/22 02:26:09;;;;;;;;;;;24.00;49.30;;;;;;1609746;73;750;-63
2021/08/22 02:28:11;;;;;;;;;;;24.00;49.20;;;;;;1597132;73;750;-63
2021/08/22 02:30:13;;;;;;;;;;;24.00;49.20;;;;;;1609399;73;1135;-64
2021/08/22 02:32:15;;;;;;;;;;;24.00;49.20;;;;;;1611610;72;742;-62
2021/08/22 02:34:17;;;;;;;;;;;24.00;49.20;;;;;;1616293;73;803;-63
2021/08/22 02:36:19;;;;;;;;;;;24.00;49.20;;;;;;1593343;74;1941;-63
2021/08/22 02:38:21;;;;;;;;;;;24.00;49.20;;;;;;1586465;73;807;-63
2021/08/22 02:40:23;;;;;;;;;;;24.00;49.20;;;;;;1609558;73;1136;-63
2021/08/22 02:42:24;;;;;;;;;;;24.00;49.30;;;;;;1598941;73;805;-63
2021/08/22 02:44:26;;;;;;;;;;;24.00;49.20;;;;;;1604452;73;825;-61
2021/08/22 02:46:28;;;;;;;;;;;24.00;49.20;;;;;;1602370;73;930;-63
2021/08/22 02:48:30;;;;;;;;;;;24.00;49.20;;;;;;1614125;73;841;-63
2021/08/22 02:50:32;;;;;;;;;;;24.00;49.20;;;;;;1604555;74;1182;-62
2021/08/22 02:52:34;;;;;;;;;;;24.00;49.20;;;;;;1606117;73;707;-63
2021/08/22 02:54:36;;;;;;;;;;;24.00;49.20;;;;;;1612967;73;1933;-63
2021/08/22 02:56:38;;;;;;;;;;;24.00;49.20;;;;;;1613183;73;808;-63
2021/08/22 02:58:40;;;;;;;;;;;24.00;49.30;;;;;;1613641;73;788;-63
2021/08/22 03:00:42;;;;;;;;;;;24.00;49.30;;;;;;1601464;73;1135;-62
2021/08/22 03:02:43;;;;;;;;;;;24.00;49.30;;;;;;1607400;73;848;-61
2021/08/22 03:04:45;;;;;;;;;;;24.00;49.30;;;;;;1603810;73;780;-62
2021/08/22 03:06:47;;;;;;;;;;;24.10;49.40;;;;;;1610734;73;774;-62
2021/08/22 03:08:49;;;;;;;;;;;24.00;49.20;;;;;;1614305;73;839;-63
2021/08/22 03:10:51;;;;;;;;;;;24.00;49.20;;;;;;1606173;73;1138;-61
2021/08/22 03:12:53;;;;;;;;;;;24.00;49.20;;;;;;1601523;73;779;-63
2021/08/22 03:14:55;;;;;;;;;;;24.00;49.30;;;;;;1614785;73;1921;-63
2021/08/22 03:16:57;;;;;;;;;;;24.00;49.20;;;;;;1602285;73;800;-63
2021/08/22 03:18:58;;;;;;;;;;;24.00;49.30;;;;;;1603281;73;827;-63
2021/08/22 03:21:00;;;;;;;;;;;24.00;49.30;;;;;;1602397;73;1142;-63
2021/08/22 03:23:02;;;;;;;;;;;24.00;49.30;;;;;;1611003;73;666;-63
2021/08/22 03:25:04;;;;;;;;;;;24.00;49.30;;;;;;1607938;73;734;-63
2021/08/22 03:27:06;;;;;;;;;;;24.00;49.30;;;;;;1601377;73;800;-63
2021/08/22 03:29:08;;;;;;;;;;;24.00;49.30;;;;;;1607205;73;725;-63
2021/08/22 03:31:10;;;;;;;;;;;24.00;49.30;;;;;;1596893;73;1065;-63
2021/08/22 03:33:12;;;;;;;;;;;24.00;49.30;;;;;;1616479;73;801;-63
2021/08/22 03:35:14;;;;;;;;;;;24.00;49.40;;;;;;1609802;73;1951;-63
2021/08/22 03:37:16;;;;;;;;;;;24.00;49.50;;;;;;1595576;73;766;-61
2021/08/22 03:39:18;;;;;;;;;;;24.00;49.50;;;;;;1602081;73;778;-62
2021/08/22 03:41:20;;;;;;;;;;;24.00;49.50;;;;;;1612659;73;1104;-62
2021/08/22 03:43:22;;;;;;;;;;;24.00;49.50;;;;;;1607933;73;767;-63
2021/08/22 03:45:23;;;;;;;;;;;24.00;49.60;;;;;;1612984;73;1070;-63
2021/08/22 03:47:25;;;;;;;;;;;24.00;49.60;;;;;;1597071;73;772;-62
2021/08/22 03:49:27;;;;;;;;;;;24.00;49.60;;;;;;1603191;73;731;-63
2021/08/22 03:51:29;;;;;;;;;;;24.00;49.60;;;;;;1600038;73;1108;-63
2021/08/22 03:53:31;;;;;;;;;;;24.00;49.70;;;;;;1599510;74;779;-63
2021/08/22 03:55:33;;;;;;;;;;;24.00;49.70;;;;;;1606547;73;1945;-63
2021/08/22 03:57:35;;;;;;;;;;;24.00;49.80;;;;;;1601620;73;799;-63
2021/08/22 03:59:37;;;;;;;;;;;24.00;49.90;;;;;;1603587;73;1146;-63
2021/08/22 04:01:38;;;;;;;;;;;24.10;50.00;;;;;;1614125;73;785;-62
2021/08/22 04:03:41;;;;;;;;;;;24.00;49.90;;;;;;1602698;73;771;-64
2021/08/22 04:05:42;;;;;;;;;;;24.00;50.00;;;;;;1608320;73;819;-63
2021/08/22 04:07:48;;;;;;;;;;;24.00;50.00;;;;;;1610153;73;795;-63
2021/08/22 04:09:48;;;;;;;;;;;24.00;50.00;;;;;;1597471;73;1653;-62
2021/08/22 04:11:51;;;;;;;;;;;24.00;50.00;;;;;;1598952;73;766;-63
2021/08/22 04:13:54;;;;;;;;;;;24.10;50.20;;;;;;1607868;73;758;-61
2021/08/22 04:15:56;;;;;;;;;;;24.10;50.20;;;;;;1600916;73;1900;-63
2021/08/22 04:17:57;;;;;;;;;;;24.00;50.10;;;;;;1612319;73;674;-64
2021/08/22 04:19:59;;;;;;;;;;;24.00;50.20;;;;;;1603278;73;1179;-63
2021/08/22 04:22:01;;;;;;;;;;;24.00;50.20;;;;;;1604870;73;776;-63
2021/08/22 04:24:04;;;;;;;;;;;24.10;50.40;;;;;;1609379;73;801;-63
2021/08/22 04:26:07;;;;;;;;;;;24.10;50.40;;;;;;1595333;73;685;-63
2021/08/22 04:28:09;;;;;;;;;;;24.00;50.30;;;;;;1603173;73;728;-61
2021/08/22 04:30:12;;;;;;;;;;;24.00;50.30;;;;;;1600290;73;1135;-63
2021/08/22 04:32:14;;;;;;;;;;;24.00;50.40;;;;;;1614835;73;753;-63
2021/08/22 04:34:16;;;;;;;;;;;24.00;50.40;;;;;;1589606;73;814;-62
2021/08/22 04:36:18;;;;;;;;;;;24.00;50.50;;;;;;1596478;73;1937;-62
2021/08/22 04:38:20;;;;;;;;;;;24.00;50.50;;;;;;1597278;73;753;-63
2021/08/22 04:40:22;;;;;;;;;;;24.00;50.50;;;;;;1609260;73;1144;-63
2021/08/22 04:42:23;;;;;;;;;;;24.00;50.60;;;;;;1607433;73;837;-63
2021/08/22 04:44:25;;;;;;;;;;;24.00;50.60;;;;;;1600144;73;721;-63
2021/08/22 04:46:27;;;;;;;;;;;24.00;50.50;;;;;;1614871;73;871;-61
2021/08/22 04:48:29;;;;;;;;;;;24.00;50.60;;;;;;1606537;73;714;-63
2021/08/22 04:50:31;;;;;;;;;;;24.00;50.60;;;;;;1600135;73;1196;-63
2021/08/22 04:52:34;;;;;;;;;;;24.00;50.60;;;;;;1605255;73;766;-63
2021/08/22 04:54:36;;;;;;;;;;;24.00;50.70;;;;;;1598963;73;751;-62
2021/08/22 04:56:40;;;;;;;;;;;24.00;50.60;;;;;;1599472;74;1932;-63
2021/08/22 04:58:42;;;;;;;;;;;24.00;50.60;;;;;;1601408;73;1616;-63
2021/08/22 05:00:44;;;;;;;;;;;24.00;50.60;;;;;;1605101;74;1146;-63
2021/08/22 05:02:46;;;;;;;;;;;24.00;50.60;;;;;;1601024;73;843;-63
2021/08/22 05:04:48;;;;;;;;;;;24.00;50.60;;;;;;1601633;73;772;-63
2021/08/22 05:06:50;;;;;;;;;;;24.00;50.60;;;;;;1605887;73;833;-63
2021/08/22 05:08:52;;;;;;;;;;;24.00;50.60;;;;;;1609898;73;791;-63
2021/08/22 05:10:55;;;;;;;;;;;24.00;50.60;;;;;;1602934;73;1136;-62
2021/08/22 05:12:57;;;;;;;;;;;24.00;50.60;;;;;;1603989;73;654;-63
2021/08/22 05:14:58;;;;;;;;;;;24.00;50.60;;;;;;1603968;73;772;-63
2021/08/22 05:17:01;;;;;;;;;;;24.00;50.60;;;;;;1606845;73;1940;-63
2021/08/22 05:19:02;;;;;;;;;;;24.00;50.60;;;;;;1599370;73;797;-62
2021/08/22 05:21:04;;;;;;;;;;;24.00;50.60;;;;;;1605538;74;1134;-63
2021/08/22 05:23:06;;;;;;;;;;;24.00;50.60;;;;;;1609917;73;777;-63
2021/08/22 05:25:08;;;;;;;;;;;24.00;50.60;;;;;;1606333;73;658;-62
2021/08/22 05:27:10;;;;;;;;;;;24.00;50.60;;;;;;1605809;73;758;-63
2021/08/22 05:29:12;;;;;;;;;;;24.00;50.60;;;;;;1600576;73;737;-63
2021/08/22 05:31:14;;;;;;;;;;;24.00;50.70;;;;;;1604426;73;1176;-64
2021/08/22 05:33:16;;;;;;;;;;;24.00;50.60;;;;;;1592317;74;845;-62
2021/08/22 05:35:18;;;;;;;;;;;24.00;50.60;;;;;;1603888;73;722;-62
2021/08/22 05:37:19;;;;;;;;;;;24.00;50.70;;;;;;1605032;73;1933;-63
2021/08/22 05:39:21;;;;;;;;;;;24.00;50.70;;;;;;1601104;74;761;-63
2021/08/22 05:41:23;;;;;;;;;;;23.90;50.70;;;;;;1598339;73;1029;-62
2021/08/22 05:43:25;;;;;;;;;;;24.00;50.70;;;;;;1604438;73;943;-63
2021/08/22 05:45:27;;;;;;;;;;;23.90;50.70;;;;;;1610070;73;784;-63
2021/08/22 05:47:29;;;;;;;;;;;23.90;50.70;;;;;;1599487;74;737;-63
2021/08/22 05:49:31;;;;;;;;;;;24.00;50.70;;;;;;1594572;74;836;-63
2021/08/22 05:51:33;;;;;;;;;;;23.90;50.70;;;;;;1599494;74;1160;-60
2021/08/22 05:53:40;;;;;;;;;;;23.90;50.70;;;;;;1603990;73;803;-61
2021/08/22 05:55:38;;;;;;;;;;;24.00;50.70;;;;;;1598837;74;1624;-63
2021/08/22 05:57:40;;;;;;;;;;;24.00;50.70;;;;;;1600097;73;1941;-62
2021/08/22 05:59:42;;;;;;;;;;;24.00;50.70;;;;;;1591868;74;1143;-63
2021/08/22 06:01:44;;;;;;;;;;;23.90;50.80;;;;;;1612878;73;785;-62
2021/08/22 06:03:46;;;;;;;;;;;24.00;50.80;;;;;;1601294;73;789;-62
2021/08/22 06:05:50;;;;;;;;;;;23.90;50.80;;;;;;1605008;73;688;-62
2021/08/22 06:07:51;;;;;;;;;;;23.90;50.80;;;;;;1599468;73;2056;-63
2021/08/22 06:09:53;;;;;;;;;;;23.90;50.80;;;;;;1604435;74;1185;-63
2021/08/22 06:11:55;;;;;;;;;;;24.00;50.80;;;;;;1606378;74;794;-63
2021/08/22 06:13:57;;;;;;;;;;;23.90;50.80;;;;;;1602187;73;830;-63
2021/08/22 06:15:59;;;;;;;;;;;23.90;50.90;;;;;;1608012;73;1937;-62
2021/08/22 06:18:00;;;;;;;;;;;24.00;50.90;;;;;;1601340;73;743;-63
2021/08/22 06:20:02;;;;;;;;;;;24.00;50.90;;;;;;1602062;73;1139;-63
2021/08/22 06:22:04;;;;;;;;;;;23.90;50.90;;;;;;1610738;73;802;-63
2021/08/22 06:24:06;;;;;;;;;;;23.90;50.90;;;;;;1598065;73;686;-61
2021/08/22 06:26:08;;;;;;;;;;;24.00;50.90;;;;;;1602875;73;780;-63
2021/08/22 06:28:10;;;;;;;;;;;24.00;50.90;;;;;;1612203;73;709;-62
2021/08/22 06:30:12;;;;;;;;;;;24.00;50.90;;;;;;1599301;73;1138;-63
2021/08/22 06:32:14;;;;;;;;;;;24.00;50.90;;;;;;1612932;73;759;-63
2021/08/22 06:34:16;;;;;;;;;;;24.00;50.90;;;;;;1596787;73;809;-61
2021/08/22 06:36:18;;;;;;;;;;;24.00;50.90;;;;;;1596675;74;1922;-62
2021/08/22 06:38:20;;;;;;;;;;;24.00;50.90;;;;;;1599319;73;879;-63
2021/08/22 06:40:21;;;;;;;;;;;24.00;50.90;;;;;;1603530;73;1154;-63
2021/08/22 06:42:23;;;;;;;;;;;24.00;50.90;;;;;;1607078;74;733;-63
2021/08/22 06:44:25;;;;;;;;;;;24.00;50.90;;;;;;1603504;73;724;-63
2021/08/22 06:46:27;;;;;;;;;;;24.00;51.00;;;;;;1600285;73;732;-63
2021/08/22 06:48:29;;;;;;;;;;;24.00;50.90;;;;;;1613788;73;812;-63
2021/08/22 06:50:31;;;;;;;;;;;24.00;50.90;;;;;;1605432;74;1143;-63
2021/08/22 06:52:33;;;;;;;;;;;24.00;50.90;;;;;;1607047;73;794;-63
2021/08/22 06:54:35;;;;;;;;;;;24.00;51.00;;;;;;1599189;73;781;-62
2021/08/22 06:56:37;;;;;;;;;;;23.90;50.90;;;;;;1606399;73;1916;-63
2021/08/22 06:58:39;;;;;;;;;;;24.00;51.00;;;;;;1601565;74;859;-63
2021/08/22 07:00:41;;;;;;;;;;;23.90;51.00;;;;;;1608473;74;1182;-63
2021/08/22 07:02:44;;;;;;;;;;;24.00;50.90;;;;;;1606255;73;768;-63
2021/08/22 07:04:46;;;;;;;;;;;24.00;51.00;;;;;;1597810;73;758;-63
2021/08/22 07:06:47;;;;;;;;;;;24.00;50.90;;;;;;1605751;73;781;-63
2021/08/22 07:08:49;;;;;;;;;;;24.00;50.90;;;;;;1615937;73;692;-63
2021/08/22 07:10:51;;;;;;;;;;;24.00;50.90;;;;;;1602485;74;1134;-63
2021/08/22 07:12:53;;;;;;;;;;;24.00;51.00;;;;;;1611522;73;643;-63
2021/08/22 07:14:55;;;;;;;;;;;24.00;51.00;;;;;;1597575;73;690;-63
2021/08/22 07:16:57;;;;;;;;;;;23.90;51.00;;;;;;1596687;73;1935;-63
2021/08/22 07:18:59;;;;;;;;;;;24.00;51.00;;;;;;1605798;73;738;-63
2021/08/22 07:21:02;;;;;;;;;;;24.00;51.00;;;;;;1602536;73;1124;-63
2021/08/22 07:23:04;;;;;;;;;;;24.00;51.00;;;;;;1599867;73;752;-63
2021/08/22 07:25:07;;;;;;;;;;;24.00;51.00;;;;;;1602724;73;788;-63
2021/08/22 07:27:08;;;;;;;;;;;24.00;51.00;;;;;;1615024;73;675;-63
2021/08/22 07:29:10;;;;;;;;;;;24.00;51.00;;;;;;1601544;73;816;-63
2021/08/22 07:31:12;;;;;;;;;;;24.00;51.00;;;;;;1598123;73;1146;-63
2021/08/22 07:33:14;;;;;;;;;;;24.00;51.00;;;;;;1593657;73;739;-63
2021/08/22 07:35:16;;;;;;;;;;;24.00;51.00;;;;;;1599455;73;677;-62
2021/08/22 07:37:18;;;;;;;;;;;23.90;51.00;;;;;;1608972;73;1932;-63
2021/08/22 07:39:20;;;;;;;;;;;24.00;51.00;;;;;;1599859;74;759;-63
2021/08/22 07:41:22;;;;;;;;;;;24.00;51.00;;;;;;1603976;73;1108;-63
2021/08/22 07:43:24;;;;;;;;;;;24.00;51.00;;;;;;1600984;74;754;-60
2021/08/22 07:45:25;;;;;;;;;;;24.00;51.00;;;;;;1605499;74;779;-63
2021/08/22 07:47:27;;;;;;;;;;;24.00;51.00;;;;;;1598312;73;772;-63
2021/08/22 07:49:29;;;;;;;;;;;24.00;50.90;;;;;;1600456;74;763;-63
2021/08/22 07:51:31;;;;;;;;;;;24.00;50.90;;;;;;1571687;72;2117;-69
2021/08/22 07:53:35;;;;;;;;;;;24.00;50.90;;;;;;1572154;73;693;-66
2021/08/22 07:55:36;;;;;;;;;;;24.00;50.90;;;;;;1577753;73;1126;-67
2021/08/22 07:57:38;;;;;;;;;;;24.00;50.90;;;;;;1591818;73;1933;-68
2021/08/22 07:59:40;;;;;;;;;;;24.00;50.80;;;;;;1583676;73;778;-67
2021/08/22 08:01:42;;;;;;;;;;;24.00;50.80;;;;;;1560218;73;1246;-67
2021/08/22 08:03:44;;;;;;;;;;;24.00;50.80;;;;;;1552777;75;708;-68
2021/08/22 08:05:46;;;;;;;;;;;24.10;51.00;;;;;;1563595;75;696;-68
2021/08/22 08:07:48;;;;;;;;;;;24.00;50.80;;;;;;1562058;74;709;-68
2021/08/22 08:09:50;;;;;;;;;;;24.10;51.00;;;;;;1563885;75;771;-67
2021/08/22 08:11:51;;;;;;;;;;;24.00;50.80;;;;;;1566122;73;1203;-67
2021/08/22 08:13:53;;;;;;;;;;;24.00;50.80;;;;;;1585672;75;701;-67
2021/08/22 08:15:55;;;;;;;;;;;24.10;51.00;;;;;;1575342;75;730;-67
2021/08/22 08:17:57;;;;;;;;;;;24.00;50.80;;;;;;1570170;74;1937;-68
2021/08/22 08:19:59;;;;;;;;;;;24.10;51.00;;;;;;1569141;73;1146;-69
2021/08/22 08:22:01;;;;;;;;;;;24.10;51.00;;;;;;1560501;75;711;-67
2021/08/22 08:24:03;;;;;;;;;;;24.10;50.90;;;;;;1575468;74;788;-67
2021/08/22 08:26:05;;;;;;;;;;;24.10;51.00;;;;;;1581953;75;817;-68
2021/08/22 08:28:07;;;;;;;;;;;24.00;50.80;;;;;;1572950;75;787;-67
2021/08/22 08:30:09;;;;;;;;;;;24.10;51.00;;;;;;1550323;75;1136;-68
2021/08/22 08:32:11;;;;;;;;;;;24.10;51.00;;;;;;1567414;75;831;-68
2021/08/22 08:34:13;;;;;;;;;;;24.10;51.00;;;;;;1578093;75;756;-67
2021/08/22 08:36:15;;;;;;;;;;;24.00;50.80;;;;;;1566257;75;729;-68
2021/08/22 08:38:17;;;;;;;;;;;24.10;50.90;;;;;;1573980;74;1948;-68
2021/08/22 08:40:20;;;;;;;;;;;24.10;50.90;;;;;;1558143;75;1156;-69
2021/08/22 08:42:25;;;;;;;;;;;24.10;50.90;;;;;;1548413;75;783;-68
2021/08/22 08:44:27;;;;;;;;;;;24.20;50.90;;;;;;1562201;75;788;-69
2021/08/22 08:46:33;;;;;;;;;;;24.10;50.90;;;;;;1564095;75;733;-67
2021/08/22 08:48:36;;;;;;;;;;;24.10;50.90;;;;;;1567724;75;598;-68
2021/08/22 08:50:41;;;;;;;;;;;24.10;50.90;;;;;;1568991;73;1679;-68
2021/08/22 08:52:51;;;;;;;;;;;24.10;50.90;;;;;;1577231;75;742;-67
2021/08/22 08:55:01;;;;;;;;;;;24.10;51.00;;;;;;1544837;75;1788;-66
2021/08/22 08:57:01;;;;;;;;;;;24.10;50.90;;;;;;1537334;75;1920;-67
2021/08/22 08:59:03;;;;;;;;;;;24.10;50.90;;;;;;1554158;75;757;-68
2021/08/22 09:01:05;;;;;;;;;;;24.10;51.00;;;;;;1581890;74;1178;-67
2021/08/22 09:03:07;;;;;;;;;;;24.10;50.90;;;;;;1562922;75;713;-68
2021/08/22 09:05:22;;;;;;;;;;;24.10;50.90;;;;;;1551297;74;733;-68
2021/08/22 09:07:26;;;;;;;;;;;24.10;50.90;;;;;;1563478;75;1114;-68
2021/08/22 09:09:38;;;;;;;;;;;24.10;50.90;;;;;;1556765;75;780;-67
2021/08/22 09:11:58;;;;;;;;;;;24.20;51.00;;;;;;1524529;75;1215;-67
2021/08/22 09:14:18;;;;;;;;;;;24.10;50.90;;;;;;1556252;75;774;-67
2021/08/22 09:16:24;;;;;;;;;;;24.10;50.90;;;;;;1553011;75;704;-68
2021/08/22 09:18:30;;;;;;;;;;;24.20;51.00;;;;;;1554595;75;1960;-67
2021/08/22 09:20:50;;;;;;;;;;;24.10;51.00;;;;;;1550681;75;1122;-66
2021/08/22 09:23:11;;;;;;;;;;;24.20;51.00;;;;;;1566866;75;788;-67
2021/08/22 09:25:30;;;;;;;;;;;24.20;51.00;;;;;;1573787;75;761;-68
2021/08/22 09:27:50;;;;;;;;;;;24.20;51.00;;;;;;1546213;75;704;-67
2021/08/22 09:30:00;;;;;;;;;;;24.10;51.00;;;;;;1549284;75;1037;-66
2021/08/22 09:32:20;;;;;;;;;;;24.10;51.00;;;;;;1556429;75;750;-69
2021/08/22 09:34:40;;;;;;;;;;;24.10;51.00;;;;;;1549327;75;755;-68
2021/08/22 09:37:00;;;;;;;;;;;24.10;51.00;;;;;;1564084;75;741;-68
2021/08/22 09:39:20;;;;;;;;;;;24.10;51.10;;;;;;1570256;74;692;-69
2021/08/22 09:41:40;;;;;;;;;;;24.10;51.10;;;;;;1556665;75;1134;-67
2021/08/22 09:44:00;;;;;;;;;;;24.10;51.00;;;;;;1559488;75;683;-66
2021/08/22 09:46:20;;;;;;;;;;;24.10;51.10;;;;;;1564869;75;740;-67
2021/08/22 09:48:29;;;;;;;;;;;24.20;51.10;;;;;;1569427;75;724;-66
2021/08/22 09:50:45;;;;;;;;;;;24.20;51.00;;;;;;1556177;74;1222;-68
2021/08/22 09:53:05;;;;;;;;;;;24.10;51.10;;;;;;1539085;75;1126;-69
2021/08/22 09:55:25;;;;;;;;;;;24.20;51.10;;;;;;1548787;75;679;-69
2021/08/22 09:57:44;;;;;;;;;;;24.20;51.10;;;;;;1558471;74;1921;-67
2021/08/22 10:00:04;;;;;;;;;;;24.20;51.10;;;;;;1548456;75;1090;-68
2021/08/22 10:02:19;;;;;;;;;;;24.20;51.10;;;;;;1540322;75;752;-69
2021/08/22 10:04:29;;;;;;;;;;;24.20;51.00;;;;;;1548562;75;1520;-66
2021/08/22 10:06:41;;;;;;;;;;;24.20;51.20;;;;;;1520404;75;1113;-67
2021/08/22 10:08:44;;;;;;;;;;;24.20;51.10;;;;;;1539442;75;1985;-67
2021/08/22 10:10:50;;;;;;;;;;;24.20;51.10;;;;;;1543416;75;1141;-67
2021/08/22 10:12:52;;;;;;;;;;;24.30;51.20;;;;;;1559741;75;774;-68
2021/08/22 10:14:54;;;;;;;;;;;24.20;51.00;;;;;;1545271;75;728;-70
2021/08/22 10:16:57;;;;;;;;;;;24.20;51.00;;;;;;1545683;75;741;-68
2021/08/22 10:19:06;;;;;;;;;;;24.20;51.00;;;;;;1542829;75;1933;-67
2021/08/22 10:21:09;;;;;;;;;;;24.30;51.10;;;;;;1544452;75;1134;-68
2021/08/22 10:23:29;;;;;;;;;;;24.30;51.10;;;;;;1562364;75;735;-68
2021/08/22 10:25:47;;;;;;;;;;;24.20;51.00;;;;;;1545655;75;677;-68
2021/08/22 10:27:50;;;;;;;;;;;24.20;50.90;;;;;;1530160;75;664;-67
2021/08/22 10:29:53;;;;;;;;;;;24.20;51.00;;;;;;1547875;75;683;-68
2021/08/22 10:31:58;;;;;;;;;;;24.30;51.00;;;;;;1557859;75;1134;-68
2021/08/22 10:34:23;;;;;;;;;;;24.20;50.90;;;;;;1542200;75;855;-67
2021/08/22 10:36:30;;;;;;;;;;;24.30;51.00;;;;;;1548328;75;720;-66
2021/08/22 10:38:32;;;;;;;;;;;24.20;50.90;;;;;;1550431;75;1937;-67
2021/08/22 10:40:34;;;;;;;;;;;24.20;50.90;;;;;;1555132;75;1151;-67
2021/08/22 10:42:36;;;;;;;;;;;24.20;50.90;;;;;;1545516;75;707;-67
2021/08/22 10:44:39;;;;;;;;;;;24.30;51.00;;;;;;1544514;74;720;-68
2021/08/22 10:46:47;;;;;;;;;;;24.20;50.80;;;;;;1564808;75;795;-67
2021/08/22 10:48:49;;;;;;;;;;;24.20;50.80;;;;;;1543260;75;698;-68
2021/08/22 10:51:07;;;;;;;;;;;24.30;51.00;;;;;;1562560;74;1203;-68
2021/08/22 10:53:23;;;;;;;;;;;24.30;51.00;;;;;;1549412;75;1216;-69
2021/08/22 10:55:29;;;;;;;;;;;24.30;51.00;;;;;;1543293;74;692;-67
2021/08/22 10:57:50;;;;;;;;;;;24.20;50.90;;;;;;1553166;75;1924;-67
2021/08/22 11:00:10;;;;;;;;;;;24.20;50.80;;;;;;1552102;75;702;-67
2021/08/22 11:02:11;;;;;;;;;;;24.30;51.00;;;;;;1539062;75;748;-68
2021/08/22 11:04:14;;;;;;;;;;;24.20;50.90;;;;;;1549813;75;736;-69
2021/08/22 11:06:16;;;;;;;;;;;24.20;50.90;;;;;;1536946;75;687;-68
2021/08/22 11:08:18;;;;;;;;;;;24.20;50.80;;;;;;1543599;75;711;-69
2021/08/22 11:10:21;;;;;;;;;;;24.20;50.80;;;;;;1556154;75;1140;-69
2021/08/22 11:12:23;;;;;;;;;;;24.20;50.80;;;;;;1536342;75;804;-67
2021/08/22 11:14:25;;;;;;;;;;;24.30;50.90;;;;;;1543298;75;663;-67
2021/08/22 11:16:40;;;;;;;;;;;24.30;50.90;;;;;;1553623;75;1077;-67
2021/08/22 11:18:44;;;;;;;;;;;24.20;50.70;;;;;;1551257;75;1939;-67
2021/08/22 11:20:46;;;;;;;;;;;24.20;50.70;;;;;;1563533;74;1829;-68
2021/08/22 11:22:50;;;;;;;;;;;24.30;50.90;;;;;;1546825;75;727;-68
2021/08/22 11:24:51;;;;;;;;;;;24.20;50.80;;;;;;1551703;75;1128;-68
2021/08/22 11:27:00;;;;;;;;;;;24.30;50.90;;;;;;1557807;75;729;-68
2021/08/22 11:29:02;;;;;;;;;;;24.30;50.90;;;;;;1543186;75;706;-68
2021/08/22 11:31:11;;;;;;;;;;;24.30;50.90;;;;;;1528426;75;1158;-68
2021/08/22 11:33:13;;;;;;;;;;;24.20;50.80;;;;;;1558028;75;715;-68
2021/08/22 11:35:16;;;;;;;;;;;24.20;50.80;;;;;;1538799;75;761;-70
2021/08/22 11:37:18;;;;;;;;;;;24.30;51.00;;;;;;1550928;75;727;-68
2021/08/22 11:39:20;;;;;;;;;;;24.20;50.80;;;;;;1546566;75;1937;-68
2021/08/22 11:41:22;;;;;;;;;;;24.30;50.90;;;;;;1567045;75;1136;-67
2021/08/22 11:43:24;;;;;;;;;;;24.30;50.90;;;;;;1560380;74;762;-67
2021/08/22 11:45:27;;;;;;;;;;;24.20;50.70;;;;;;1550664;75;735;-68
2021/08/22 11:47:28;;;;;;;;;;;24.30;50.90;;;;;;1556926;75;756;-68
2021/08/22 11:49:30;;;;;;;;;;;24.20;50.70;;;;;;1525432;77;722;-67
2021/08/22 11:51:32;;;;;;;;;;;24.30;50.90;;;;;;1550941;76;1264;-67
2021/08/22 11:53:34;;;;;;;;;;;24.30;50.80;;;;;;1546180;75;787;-68
2021/08/22 11:55:37;;;;;;;;;;;24.30;50.90;;;;;;1546749;75;668;-68
2021/08/22 11:57:39;;;;;;;;;;;24.30;50.80;;;;;;1539338;75;710;-67
2021/08/22 11:59:41;;;;;;;;;;;24.20;50.70;;;;;;1543860;75;1945;-68
2021/08/22 12:01:43;;;;;;;;;;;24.20;50.70;;;;;;1572378;74;1144;-66
2021/08/22 12:03:57;;;;;;;;;;;24.30;50.70;;;;;;1559082;75;710;-67
2021/08/22 12:06:00;;;;;;;;;;;24.30;50.70;;;;;;1562221;75;705;-67
2021/08/22 12:08:03;;;;;;;;;;;24.20;50.60;;;;;;1552666;75;687;-68
2021/08/22 12:10:06;;;;;;;;;;;24.20;50.60;;;;;;1553238;75;1138;-68
2021/08/22 12:12:09;;;;;;;;;;;24.20;50.60;;;;;;1551974;75;733;-68
2021/08/22 12:14:15;;;;;;;;;;;24.20;50.60;;;;;;1566707;75;1097;-67
2021/08/22 12:16:25;;;;;;;;;;;24.30;50.70;;;;;;1548166;75;1213;-70
2021/08/22 12:18:28;;;;;;;;;;;24.20;50.60;;;;;;1499257;75;1940;-67